Time;durP1;ratioP1;P1;durP2;ratioP2;P2;SDS_P1;SDS_P2;PMS_P1;PMS_P2;Temp;Humidity;BMP_temperature;BMP_pressure;BME280_temperature;BME280_humidity;BME280_pressure;Samples;Min_cycle;Max_cycle;Signal;HPM_P1;HPM_P2
2023/02/02 00:01:18;;;;;;;3.40;1.00;;;;;;;4.15;45.30;93960.38;5004759;28;20138;-81
2023/02/02 00:03:44;;;;;;;4.65;1.50;;;;;;;4.13;45.42;93962.50;5005864;28;20033;-80
2023/02/02 00:06:10;;;;;;;2.17;0.82;;;;;;;4.15;45.09;93963.84;5005809;28;20212;-80
2023/02/02 00:08:37;;;;;;;4.22;1.30;;;;;;;4.14;44.82;93959.59;5005949;28;20042;-80
2023/02/02 00:11:03;;;;;;;3.35;1.20;;;;;;;4.16;44.89;93968.03;5005968;28;20029;-80
2023/02/02 00:13:28;;;;;;;5.32;1.42;;;;;;;4.12;45.09;93956.44;5005683;28;20324;-80
2023/02/02 00:15:54;;;;;;;3.58;1.00;;;;;;;4.10;45.10;93948.00;5005657;28;20045;-81
2023/02/02 00:18:20;;;;;;;4.60;1.63;;;;;;;4.09;46.03;93941.19;5006625;28;20041;-80
2023/02/02 00:20:48;;;;;;;2.72;1.00;;;;;;;3.95;47.28;93945.44;5006509;28;20022;-80
2023/02/02 00:23:13;;;;;;;6.15;1.85;;;;;;;3.87;46.72;93951.25;5006398;28;20046;-80
2023/02/02 00:25:39;;;;;;;4.82;2.22;;;;;;;3.90;46.39;93948.09;5006165;28;20094;-80
2023/02/02 00:28:04;;;;;;;2.90;1.33;;;;;;;3.79;47.68;93940.22;5006160;28;20029;-79
2023/02/02 00:30:30;;;;;;;3.30;1.25;;;;;;;3.72;48.68;93955.50;5006818;28;20018;-80
2023/02/02 00:32:56;;;;;;;4.72;1.40;;;;;;;3.70;49.62;93947.06;5006057;28;20023;-81
2023/02/02 00:35:21;;;;;;;3.80;1.35;;;;;;;3.69;49.60;93963.19;5005855;28;20336;-79
2023/02/02 00:37:47;;;;;;;3.13;1.40;;;;;;;3.62;50.77;93979.25;5005347;28;20033;-79
2023/02/02 00:40:13;;;;;;;3.85;1.60;;;;;;;3.55;51.48;93981.38;5005271;28;20028;-81
2023/02/02 00:42:38;;;;;;;3.63;1.50;;;;;;;3.50;51.41;93978.75;5005369;28;20023;-79
2023/02/02 00:45:16;;;;;;;3.70;1.40;;;;;;;3.53;51.31;93970.31;5005418;28;20312;-80
2023/02/02 00:47:47;;;;;;;6.70;1.60;;;;;;;3.50;51.63;93984.00;5005086;28;20022;-79
2023/02/02 00:50:18;;;;;;;2.30;1.20;;;;;;;3.39;52.92;93991.13;5005338;28;20030;-80
2023/02/02 00:52:45;;;;;;;3.80;1.60;;;;;;;3.41;52.29;93989.81;5005254;28;20270;-79
2023/02/02 00:55:12;;;;;;;6.13;2.08;;;;;;;3.39;51.97;93972.69;5004968;28;20327;-80
2023/02/02 00:57:40;;;;;;;2.42;1.30;;;;;;;3.33;52.75;93971.13;5004814;28;20026;-80
2023/02/02 01:00:07;;;;;;;4.72;2.03;;;;;;;3.41;53.21;93962.69;5003791;28;20026;-80
2023/02/02 01:02:34;;;;;;;5.40;1.35;;;;;;;3.46;52.71;93964.50;5005171;28;20216;-80
2023/02/02 01:05:00;;;;;;;4.88;2.00;;;;;;;3.51;52.84;93951.34;5004256;28;20014;-80
2023/02/02 01:07:26;;;;;;;4.22;2.00;;;;;;;3.52;52.79;93966.09;5004784;28;20312;-80
2023/02/02 01:09:51;;;;;;;5.15;2.10;;;;;;;3.54;52.40;93951.59;5004685;28;20025;-80
2023/02/02 01:12:17;;;;;;;4.45;1.58;;;;;;;3.53;52.28;93949.22;5004548;28;20019;-80
2023/02/02 01:14:44;;;;;;;4.25;1.98;;;;;;;3.50;52.52;93942.66;5004581;28;20025;-80
2023/02/02 01:17:10;;;;;;;3.90;1.98;;;;;;;3.45;52.33;93949.78;5004465;28;20098;-80
2023/02/02 01:19:35;;;;;;;3.63;1.60;;;;;;;3.41;52.41;93939.75;5004355;28;20022;-80
2023/02/02 01:22:01;;;;;;;3.83;1.77;;;;;;;3.44;52.08;93925.28;5004259;28;20235;-80
2023/02/02 01:24:26;;;;;;;4.88;1.83;;;;;;;3.38;52.06;93928.97;5004493;28;20029;-79
2023/02/02 01:26:52;;;;;;;3.30;1.52;;;;;;;3.36;51.75;93937.13;5004387;28;20041;-79
2023/02/02 01:29:17;;;;;;;8.88;2.13;;;;;;;3.29;51.62;93944.50;5004173;28;20077;-79
2023/02/02 01:31:43;;;;;;;2.97;1.55;;;;;;;3.32;51.50;93938.72;5004259;28;20143;-79
2023/02/02 01:34:08;;;;;;;3.67;1.63;;;;;;;3.24;51.60;93935.81;5004206;28;20025;-79
2023/02/02 01:36:34;;;;;;;3.80;1.75;;;;;;;3.26;52.12;93942.41;5004435;28;20041;-79
2023/02/02 01:39:00;;;;;;;4.15;2.08;;;;;;;3.19;51.99;93937.41;5004173;28;20029;-79
2023/02/02 01:41:27;;;;;;;4.78;1.67;;;;;;;3.19;52.18;93936.63;5002946;28;20332;-79
2023/02/02 01:44:04;;;;;;;4.47;1.98;;;;;;;3.15;51.84;93922.38;5003981;28;20112;-79
2023/02/02 01:46:35;;;;;;;3.35;1.98;;;;;;;3.16;51.74;93927.41;5004172;28;20030;-79
2023/02/02 01:49:13;;;;;;;6.25;2.20;;;;;;;3.18;51.66;93924.50;5003966;28;20037;-78
2023/02/02 01:51:50;;;;;;;3.95;1.88;;;;;;;3.14;52.27;93921.59;5004011;28;20096;-78
2023/02/02 01:54:20;;;;;;;10.90;2.22;;;;;;;3.10;52.26;93909.25;5003849;28;20030;-78
2023/02/02 01:56:54;;;;;;;4.03;2.03;;;;;;;3.13;52.43;93906.06;5003718;28;20019;-78
2023/02/02 01:59:20;;;;;;;7.32;2.30;;;;;;;3.09;52.42;93902.38;5003871;28;20030;-78
2023/02/02 02:01:47;;;;;;;4.05;1.90;;;;;;;3.03;52.30;93903.44;5003690;28;20022;-78
2023/02/02 02:04:13;;;;;;;4.65;2.95;;;;;;;3.00;52.78;93912.66;5002595;28;20026;-78
2023/02/02 02:06:39;;;;;;;5.05;2.17;;;;;;;2.99;52.56;93896.09;5003742;28;20240;-78
2023/02/02 02:09:06;;;;;;;6.00;2.33;;;;;;;2.93;52.52;93894.50;5003846;28;20033;-78
2023/02/02 02:11:33;;;;;;;7.55;2.13;;;;;;;2.92;51.83;93894.75;5003709;28;20022;-78
2023/02/02 02:16:57;;;;;;;4.28;1.58;;;;;;;2.93;51.68;93918.19;5003545;28;20351;-78
2023/02/02 02:26:33;;;;;;;5.10;2.05;;;;;;;2.95;48.60;93918.72;5003453;28;20032;-78
2023/02/02 02:29:26;;;;;;;5.13;1.90;;;;;;;2.97;48.00;93926.34;5003499;28;20221;-78
2023/02/02 02:32:00;;;;;;;4.95;1.98;;;;;;;2.99;47.70;93903.97;5003480;28;20023;-78
2023/02/02 02:34:55;;;;;;;3.60;2.20;;;;;;;3.00;47.96;93895.00;5003511;28;20050;-79
2023/02/02 02:37:40;;;;;;;3.55;1.88;;;;;;;3.04;46.16;93900.56;5003006;28;20069;-80
2023/02/02 02:40:31;;;;;;;3.72;1.33;;;;;;;3.09;46.83;93899.75;5003370;28;20097;-80
2023/02/02 02:42:59;;;;;;;4.10;1.63;;;;;;;3.06;45.84;93902.94;5003531;28;20027;-80
2023/02/02 02:45:27;;;;;;;6.28;1.60;;;;;;;3.08;45.81;93895.56;5003262;28;20023;-80
2023/02/02 02:47:53;;;;;;;2.22;1.08;;;;;;;3.11;45.39;93910.81;5003349;28;20022;-81
2023/02/02 02:50:20;;;;;;;3.65;1.52;;;;;;;3.14;45.02;93883.97;5003130;28;20030;-81
2023/02/02 02:52:48;;;;;;;2.70;1.48;;;;;;;3.15;45.38;93882.88;5003126;28;20069;-82
2023/02/02 02:55:14;;;;;;;4.43;1.80;;;;;;;3.12;45.34;93909.78;5003257;28;20268;-79
2023/02/02 02:58:12;;;;;;;2.00;1.13;;;;;;;3.13;44.47;93898.16;5003200;28;20085;-79
2023/02/02 03:00:57;;;;;;;3.85;1.75;;;;;;;3.17;45.51;93899.22;5001783;28;20034;-79
2023/02/02 03:03:29;;;;;;;2.47;1.20;;;;;;;3.15;44.70;93896.84;5003185;28;20252;-78
2023/02/02 03:06:06;;;;;;;4.37;1.47;;;;;;;3.16;45.56;93902.91;5002950;28;20034;-80
2023/02/02 03:08:32;;;;;;;3.53;1.60;;;;;;;3.12;45.36;93886.06;5003258;28;20022;-80
2023/02/02 03:10:58;;;;;;;3.03;1.70;;;;;;;3.16;45.15;93897.66;5002960;28;20230;-80
2023/02/02 03:13:26;;;;;;;5.13;1.10;;;;;;;3.17;45.30;93894.72;5002933;28;20375;-80
2023/02/02 03:15:51;;;;;;;2.72;1.00;;;;;;;3.17;44.74;93896.59;5002885;28;20022;-81
2023/02/02 03:18:21;;;;;;;2.95;1.35;;;;;;;3.19;45.36;93889.19;5003008;28;20025;-80
2023/02/02 03:20:46;;;;;;;4.22;1.60;;;;;;;3.19;46.10;93912.91;5002920;28;20018;-80
2023/02/02 03:23:13;;;;;;;2.97;1.40;;;;;;;3.19;47.02;93878.66;5002786;28;20065;-79
2023/02/02 03:25:38;;;;;;;3.45;1.55;;;;;;;3.10;46.77;93878.41;5002821;28;20093;-79
2023/02/02 03:28:04;;;;;;;4.25;1.17;;;;;;;3.12;44.82;93902.66;5004951;28;20018;-79
2023/02/02 03:30:30;;;;;;;3.70;1.50;;;;;;;3.17;46.59;93884.19;5006755;28;20077;-79
2023/02/02 03:32:56;;;;;;;3.90;1.73;;;;;;;3.10;46.21;93861.84;5006385;28;20029;-81
2023/02/02 03:35:21;;;;;;;3.00;1.30;;;;;;;3.09;45.10;93881.31;5006242;28;20086;-79
2023/02/02 03:37:47;;;;;;;6.85;1.33;;;;;;;3.09;44.90;93870.78;5006250;28;20308;-79
2023/02/02 03:40:13;;;;;;;2.78;1.35;;;;;;;3.12;45.05;93889.47;5006564;28;20040;-79
2023/02/02 03:42:39;;;;;;;5.55;1.38;;;;;;;3.15;43.64;93881.03;5006203;28;20026;-79
2023/02/02 03:45:05;;;;;;;2.00;1.35;;;;;;;3.20;45.16;93893.44;5006136;28;20025;-79
2023/02/02 03:47:31;;;;;;;3.22;1.33;;;;;;;3.18;45.15;93888.41;5006235;28;20335;-79
2023/02/02 03:49:57;;;;;;;4.57;1.42;;;;;;;3.13;44.32;93892.91;5004797;28;20097;-81
2023/02/02 03:52:22;;;;;;;3.17;1.20;;;;;;;3.19;43.89;93897.09;5006107;28;20029;-79
2023/02/02 03:54:48;;;;;;;2.28;1.00;;;;;;;3.13;43.62;93887.63;5005985;28;20034;-79
2023/02/02 03:57:13;;;;;;;4.00;1.30;;;;;;;3.16;43.29;93892.38;5005887;28;20030;-81
2023/02/02 03:59:39;;;;;;;3.65;1.40;;;;;;;3.17;42.53;93905.25;5005943;28;20236;-80
2023/02/02 04:02:04;;;;;;;5.90;1.17;;;;;;;3.19;42.88;93892.63;5004460;28;20022;-80
2023/02/02 04:04:30;;;;;;;3.95;1.33;;;;;;;3.21;43.10;93895.78;5006048;28;20049;-80
2023/02/02 04:06:57;;;;;;;7.47;1.15;;;;;;;3.20;42.71;93899.47;5004639;28;20256;-80
2023/02/02 04:09:23;;;;;;;5.05;2.08;;;;;;;3.23;43.98;93900.78;5005630;28;20336;-79
2023/02/02 04:11:48;;;;;;;3.55;1.45;;;;;;;3.19;44.91;93908.41;5005760;28;20030;-81
2023/02/02 04:14:14;;;;;;;6.53;1.63;;;;;;;3.18;44.21;93898.16;5005794;28;20383;-80
2023/02/02 04:16:39;;;;;;;2.67;1.02;;;;;;;3.17;43.50;93915.03;5005627;28;20272;-80
2023/02/02 04:19:05;;;;;;;3.00;1.27;;;;;;;3.19;44.17;93907.63;5005595;28;20114;-79
2023/02/02 04:21:30;;;;;;;2.60;1.20;;;;;;;3.19;43.88;93923.44;5005534;28;20048;-79
2023/02/02 04:23:59;;;;;;;3.25;1.83;;;;;;;3.20;43.63;93920.56;5005525;28;20045;-78
2023/02/02 04:26:25;;;;;;;3.53;1.38;;;;;;;3.18;43.89;93929.78;5005214;28;20033;-79
2023/02/02 04:28:51;;;;;;;3.22;1.58;;;;;;;3.15;44.22;93925.03;5005525;28;20341;-79
2023/02/02 04:31:17;;;;;;;2.97;1.30;;;;;;;3.17;44.68;93930.81;5004161;28;20336;-78
2023/02/02 04:33:42;;;;;;;4.05;1.80;;;;;;;3.12;44.75;93922.94;5005294;28;20053;-78
2023/02/02 04:36:08;;;;;;;5.35;1.83;;;;;;;3.07;45.04;93915.03;5003868;28;20261;-78
2023/02/02 04:38:33;;;;;;;3.60;1.45;;;;;;;3.12;44.50;93912.41;5004365;28;20317;-80
2023/02/02 04:41:05;;;;;;;4.55;1.52;;;;;;;3.10;44.90;93915.28;5005060;28;20026;-80
2023/02/02 04:43:33;;;;;;;3.83;1.60;;;;;;;3.05;44.79;93915.28;5005318;28;20033;-81
2023/02/02 04:45:58;;;;;;;3.50;1.70;;;;;;;3.04;44.98;93936.63;5005017;28;20018;-80
2023/02/02 04:48:23;;;;;;;4.32;1.38;;;;;;;3.05;44.56;93928.44;5004999;28;20034;-78
2023/02/02 04:50:49;;;;;;;3.13;1.13;;;;;;;3.06;42.92;93919.50;5004736;28;20086;-79
2023/02/02 04:53:14;;;;;;;3.38;1.38;;;;;;;3.06;43.57;93922.13;5003751;28;20057;-78
2023/02/02 04:55:40;;;;;;;3.55;1.42;;;;;;;3.08;43.63;93927.94;5004691;28;20026;-78
2023/02/02 04:58:05;;;;;;;3.80;1.17;;;;;;;3.13;43.78;93916.59;5004882;28;20026;-80
2023/02/02 05:00:30;;;;;;;2.88;1.23;;;;;;;3.13;44.15;93913.97;5004897;28;20026;-78
2023/02/02 05:02:56;;;;;;;3.45;1.40;;;;;;;3.08;43.92;93912.13;5004643;28;20092;-79
2023/02/02 05:05:21;;;;;;;3.25;1.30;;;;;;;3.11;43.48;93919.50;5004547;28;20057;-79
2023/02/02 05:07:47;;;;;;;3.42;1.40;;;;;;;3.15;44.20;93919.75;5004580;28;20029;-79
2023/02/02 05:10:12;;;;;;;3.92;1.50;;;;;;;3.18;44.62;93912.13;5004565;28;20018;-79
2023/02/02 05:12:38;;;;;;;2.92;1.50;;;;;;;3.15;44.13;93903.97;5004428;28;20034;-79
2023/02/02 05:15:04;;;;;;;4.35;1.85;;;;;;;3.15;44.44;93917.13;5004557;28;20042;-79
2023/02/02 05:17:30;;;;;;;3.95;1.55;;;;;;;3.15;44.69;93922.38;5004449;28;20022;-79
2023/02/02 05:19:56;;;;;;;1.77;1.10;;;;;;;3.17;43.35;93920.28;5004432;28;20022;-78
2023/02/02 05:22:21;;;;;;;2.05;1.15;;;;;;;3.20;43.27;93919.78;5004064;28;20039;-79
2023/02/02 05:24:47;;;;;;;2.53;1.08;;;;;;;3.12;43.86;93907.13;5004305;28;20030;-79
2023/02/02 05:27:12;;;;;;;2.72;1.20;;;;;;;3.14;43.88;93920.81;5004154;28;20027;-79
2023/02/02 05:29:38;;;;;;;3.13;1.20;;;;;;;3.16;44.67;93919.50;5003762;28;20112;-79
2023/02/02 05:32:03;;;;;;;4.22;1.33;;;;;;;3.17;45.01;93915.03;5004234;28;20026;-80
2023/02/02 05:34:29;;;;;;;2.67;1.35;;;;;;;3.13;45.54;93895.53;5004211;28;20026;-80
2023/02/02 05:36:54;;;;;;;8.52;1.85;;;;;;;3.12;45.53;93922.94;5004054;28;20026;-80
2023/02/02 05:39:20;;;;;;;5.65;1.45;;;;;;;3.08;45.62;93921.88;5003141;28;20048;-80
2023/02/02 05:41:45;;;;;;;4.10;1.55;;;;;;;3.10;44.81;93923.19;5003048;28;20026;-80
2023/02/02 05:44:12;;;;;;;3.40;1.63;;;;;;;3.10;45.21;93917.16;5003849;28;20220;-80
2023/02/02 05:46:38;;;;;;;2.70;1.33;;;;;;;3.10;44.14;93912.66;5004001;28;20308;-80
2023/02/02 05:49:03;;;;;;;2.60;1.52;;;;;;;3.17;44.46;93915.03;5004140;28;20029;-80
2023/02/02 05:51:34;;;;;;;5.28;1.80;;;;;;;3.21;44.20;93918.69;5002410;28;20096;-80
2023/02/02 05:53:59;;;;;;;4.30;1.67;;;;;;;3.28;42.11;93916.59;5003994;28;20097;-80
2023/02/02 05:56:24;;;;;;;4.03;1.73;;;;;;;3.44;41.96;93914.72;5003351;28;20229;-80
2023/02/02 05:58:50;;;;;;;3.22;1.30;;;;;;;3.41;42.98;93918.66;5003672;28;20317;-79
2023/02/02 06:01:17;;;;;;;3.42;1.60;;;;;;;3.44;42.56;93912.09;5003785;28;20029;-80
2023/02/02 06:03:43;;;;;;;1.95;1.17;;;;;;;3.45;43.27;93915.53;5003611;28;20022;-80
2023/02/02 06:06:08;;;;;;;5.32;2.58;;;;;;;3.44;44.03;93919.19;5003579;28;20086;-80
2023/02/02 06:08:34;;;;;;;4.25;1.90;;;;;;;3.46;44.22;93919.72;5003812;28;20057;-80
2023/02/02 06:11:11;;;;;;;3.65;1.83;;;;;;;3.50;42.56;93928.66;5003760;28;20034;-80
2023/02/02 06:13:37;;;;;;;2.17;1.08;;;;;;;3.59;41.63;93940.25;5002460;28;20026;-80
2023/02/02 06:16:03;;;;;;;6.55;1.90;;;;;;;3.63;41.71;93925.50;5003662;28;20030;-80
2023/02/02 06:18:28;;;;;;;6.15;1.63;;;;;;;3.64;42.03;93942.88;5003423;28;20128;-80
2023/02/02 06:20:58;;;;;;;3.08;1.80;;;;;;;3.67;43.02;93937.06;5003312;28;20033;-80
2023/02/02 06:23:24;;;;;;;4.15;1.63;;;;;;;3.67;42.43;93950.25;5003115;28;20038;-80
2023/02/02 06:25:49;;;;;;;7.82;1.67;;;;;;;3.72;42.84;93947.59;5003456;28;20052;-80
2023/02/02 06:28:15;;;;;;;3.67;1.63;;;;;;;3.73;42.94;93957.09;5003415;28;20030;-81
2023/02/02 06:30:40;;;;;;;6.18;2.67;;;;;;;3.80;42.79;93962.09;5002198;28;20101;-81
2023/02/02 06:33:06;;;;;;;3.85;1.90;;;;;;;3.81;42.40;93961.81;5003449;28;20030;-80
2023/02/02 06:35:32;;;;;;;5.22;2.13;;;;;;;3.86;42.76;93962.88;5003439;28;20030;-80
2023/02/02 06:37:58;;;;;;;4.38;1.85;;;;;;;3.89;43.56;93957.84;5003303;28;20030;-81
2023/02/02 06:40:24;;;;;;;5.25;2.08;;;;;;;3.91;42.94;93965.47;5003348;28;20028;-80
2023/02/02 06:42:55;;;;;;;5.57;1.98;;;;;;;3.88;42.84;93950.97;5003249;28;20023;-80
2023/02/02 06:45:20;;;;;;;5.15;2.00;;;;;;;3.90;42.20;93963.91;5003234;28;20125;-81
2023/02/02 06:47:46;;;;;;;13.73;2.30;;;;;;;3.95;42.87;93985.00;5003028;28;20026;-80
2023/02/02 06:50:11;;;;;;;6.20;2.50;;;;;;;3.90;43.73;93963.91;5002821;28;20308;-79
2023/02/02 06:52:37;;;;;;;6.32;1.92;;;;;;;3.84;43.58;93986.84;5002951;28;20109;-79
2023/02/02 06:55:02;;;;;;;4.88;1.73;;;;;;;3.89;43.56;93957.03;5002684;28;20329;-79
2023/02/02 06:57:28;;;;;;;5.03;1.63;;;;;;;3.97;43.20;93974.97;5001697;28;20026;-80
2023/02/02 06:59:53;;;;;;;4.93;1.50;;;;;;;3.99;42.61;93993.97;5002822;28;20335;-79
2023/02/02 07:02:19;;;;;;;5.68;1.95;;;;;;;4.03;43.02;93952.81;5003605;28;20050;-80
2023/02/02 07:04:44;;;;;;;3.60;1.58;;;;;;;4.06;43.13;93983.13;5006775;28;20018;-78
2023/02/02 07:07:09;;;;;;;3.20;1.73;;;;;;;4.05;43.51;93981.53;5006688;28;20025;-79
2023/02/02 07:09:38;;;;;;;7.43;2.40;;;;;;;4.01;43.91;93991.84;5005429;28;20019;-79
2023/02/02 07:12:04;;;;;;;7.43;2.10;;;;;;;3.94;44.30;93991.31;5006686;28;20216;-78
2023/02/02 07:14:29;;;;;;;5.93;2.15;;;;;;;3.96;44.64;93983.94;5006678;28;20025;-80
2023/02/02 07:16:55;;;;;;;4.60;2.00;;;;;;;3.99;44.57;93960.47;5006622;28;20215;-79
2023/02/02 07:19:23;;;;;;;4.70;1.88;;;;;;;4.00;44.60;93988.41;5006232;28;20034;-78
2023/02/02 07:21:49;;;;;;;4.00;1.58;;;;;;;4.04;43.90;93970.19;5006437;28;20034;-77
2023/02/02 07:24:14;;;;;;;4.45;1.65;;;;;;;4.04;43.62;93983.38;5006540;28;20041;-77
2023/02/02 07:26:40;;;;;;;5.38;1.70;;;;;;;4.05;44.01;93982.34;5006470;28;20014;-77
2023/02/02 07:29:05;;;;;;;4.85;1.98;;;;;;;4.20;44.77;93984.91;5005162;28;20018;-78
2023/02/02 07:31:31;;;;;;;3.45;1.60;;;;;;;4.09;45.01;94001.84;5005192;28;20025;-77
2023/02/02 07:33:56;;;;;;;1.65;1.05;;;;;;;3.94;45.84;94007.16;5006484;28;20089;-78
2023/02/02 07:36:23;;;;;;;6.90;1.70;;;;;;;3.89;46.00;94001.88;5006192;28;20256;-78
2023/02/02 07:38:52;;;;;;;5.45;2.22;;;;;;;3.92;45.99;94007.41;5006372;28;20018;-77
2023/02/02 07:41:18;;;;;;;4.68;1.58;;;;;;;3.98;46.02;94002.91;5006291;28;20026;-77
2023/02/02 07:43:46;;;;;;;4.25;1.95;;;;;;;4.06;46.11;94002.38;5006127;28;20220;-77
2023/02/02 07:46:13;;;;;;;5.00;1.83;;;;;;;4.15;45.66;93999.97;5006194;28;20027;-76
2023/02/02 07:48:39;;;;;;;2.80;1.42;;;;;;;4.16;44.52;93983.88;5006170;28;20026;-74
2023/02/02 07:51:12;;;;;;;4.25;1.60;;;;;;;4.23;44.78;93983.56;5005458;28;20022;-74
2023/02/02 07:53:38;;;;;;;2.55;1.30;;;;;;;4.27;44.40;93994.38;5004602;28;20317;-75
2023/02/02 07:56:08;;;;;;;6.50;1.60;;;;;;;4.28;44.57;93967.72;5005663;28;20026;-74
2023/02/02 07:58:33;;;;;;;2.83;1.42;;;;;;;4.33;45.30;93956.34;5005725;28;20022;-74
2023/02/02 08:01:00;;;;;;;4.25;1.67;;;;;;;4.37;45.07;93952.91;5005448;28;20029;-74
2023/02/02 08:03:26;;;;;;;6.85;2.25;;;;;;;4.41;45.15;93969.00;5005242;28;20060;-74
2023/02/02 08:05:51;;;;;;;4.30;1.92;;;;;;;4.46;45.29;93955.78;5005551;28;20015;-74
2023/02/02 08:08:16;;;;;;;6.45;2.40;;;;;;;4.58;45.41;93952.78;5005386;28;20026;-74
2023/02/02 08:10:50;;;;;;;4.47;2.22;;;;;;;4.72;45.76;93950.34;5005255;28;20026;-74
2023/02/02 08:13:16;;;;;;;6.50;1.70;;;;;;;4.83;45.50;93936.03;5005007;28;20034;-74
2023/02/02 08:15:41;;;;;;;3.85;1.77;;;;;;;4.95;44.41;93943.59;5004989;28;20037;-74
2023/02/02 08:18:07;;;;;;;8.98;1.80;;;;;;;4.95;44.24;93941.75;5005236;28;20030;-74
2023/02/02 08:20:32;;;;;;;3.97;1.63;;;;;;;5.03;44.46;93943.78;5005167;28;20057;-74
2023/02/02 08:22:58;;;;;;;4.63;1.55;;;;;;;5.19;44.49;93943.66;5004717;28;20272;-73
2023/02/02 08:25:24;;;;;;;6.32;1.80;;;;;;;5.28;44.37;93939.38;5004664;28;20018;-75
2023/02/02 08:27:53;;;;;;;3.03;1.70;;;;;;;5.21;44.56;93933.59;5004879;28;20072;-75
2023/02/02 08:30:18;;;;;;;4.43;2.10;;;;;;;5.18;45.05;93928.88;5005100;28;20014;-75
2023/02/02 08:32:44;;;;;;;3.85;1.92;;;;;;;5.12;45.55;93935.28;5004727;28;20080;-75
2023/02/02 08:35:09;;;;;;;8.05;1.88;;;;;;;4.98;45.85;93921.91;5004500;28;20022;-74
2023/02/02 08:37:35;;;;;;;8.23;2.10;;;;;;;5.00;45.87;93936.41;5004694;28;20026;-74
2023/02/02 08:40:00;;;;;;;6.25;2.38;;;;;;;4.95;45.91;93933.81;5003580;28;20077;-74
2023/02/02 08:42:25;;;;;;;3.70;1.92;;;;;;;5.01;45.93;93942.50;5004545;28;20343;-74
2023/02/02 08:44:51;;;;;;;4.93;1.92;;;;;;;5.02;45.85;93936.91;5004746;28;20038;-76
2023/02/02 08:47:16;;;;;;;4.55;1.90;;;;;;;5.09;46.54;93925.25;5004506;28;20082;-75
2023/02/02 08:49:43;;;;;;;6.25;1.88;;;;;;;5.21;46.44;93923.84;5004531;28;20085;-76
2023/02/02 08:52:09;;;;;;;13.35;5.00;;;;;;;5.36;47.18;93930.84;5004582;28;20061;-76
2023/02/02 08:54:34;;;;;;;22.67;7.22;;;;;;;5.46;48.16;93918.63;5004532;28;20026;-76
2023/02/02 08:57:00;;;;;;;20.02;8.02;;;;;;;5.51;48.49;93923.84;5004332;28;20077;-76
2023/02/02 08:59:25;;;;;;;26.35;9.43;;;;;;;5.38;49.10;93912.84;5003975;28;20094;-77
2023/02/02 09:01:51;;;;;;;17.23;7.07;;;;;;;5.32;48.85;93918.47;5004542;28;20030;-77
2023/02/02 09:04:16;;;;;;;18.10;5.95;;;;;;;5.30;48.43;93924.03;5004646;28;20037;-77
2023/02/02 09:06:42;;;;;;;10.23;4.57;;;;;;;5.20;48.09;93921.47;5004618;28;20085;-76
2023/02/02 09:09:11;;;;;;;8.02;3.67;;;;;;;5.26;47.58;93930.16;5004583;28;20372;-75
2023/02/02 09:11:37;;;;;;;4.07;1.85;;;;;;;5.32;45.38;93918.47;5004597;28;20026;-75
2023/02/02 09:14:05;;;;;;;4.43;2.35;;;;;;;5.33;45.90;93912.91;5004758;28;20033;-74
2023/02/02 09:16:31;;;;;;;21.73;8.00;;;;;;;5.45;48.05;93924.94;5004296;28;20084;-75
2023/02/02 09:18:57;;;;;;;8.65;4.47;;;;;;;5.46;46.80;93903.53;5004456;28;20105;-75
2023/02/02 09:21:24;;;;;;;16.52;7.03;;;;;;;5.49;48.02;93931.25;5004182;28;20073;-76
2023/02/02 09:23:52;;;;;;;12.13;3.20;;;;;;;5.45;45.76;93917.81;5004278;28;20069;-76
2023/02/02 09:26:26;;;;;;;9.30;4.97;;;;;;;5.60;47.25;93927.47;5003717;28;20045;-76
2023/02/02 09:28:58;;;;;;;12.57;5.38;;;;;;;5.65;47.48;93913.41;5003945;28;20372;-75
2023/02/02 09:31:24;;;;;;;10.07;2.47;;;;;;;5.67;44.83;93919.97;5004366;28;20030;-75
2023/02/02 09:33:50;;;;;;;4.78;2.13;;;;;;;5.77;44.79;93917.22;5004195;28;20026;-75
2023/02/02 09:36:21;;;;;;;4.82;2.22;;;;;;;5.91;43.96;93909.41;5004107;28;20349;-76
2023/02/02 09:38:47;;;;;;;4.88;1.95;;;;;;;6.08;44.94;93908.19;5003928;28;20029;-75
2023/02/02 09:41:28;;;;;;;7.30;2.72;;;;;;;6.13;43.87;93900.97;5003907;28;20047;-75
2023/02/02 09:43:53;;;;;;;6.43;2.20;;;;;;;6.09;42.82;93883.31;5003976;28;20273;-77
2023/02/02 09:46:50;;;;;;;5.95;1.92;;;;;;;6.21;41.91;93891.63;5003921;28;20029;-75
2023/02/02 09:49:22;;;;;;;4.30;2.03;;;;;;;6.26;42.29;93886.25;4983311;28;20396;-74
2023/02/02 09:51:55;;;;;;;6.07;1.67;;;;;;;6.32;41.58;93884.34;5003850;28;20307;-76
2023/02/02 09:54:28;;;;;;;9.13;1.63;;;;;;;6.29;42.04;93888.34;5003674;28;20026;-76
2023/02/02 09:56:56;;;;;;;4.03;1.65;;;;;;;6.43;41.20;93877.81;5003905;28;20261;-76
2023/02/02 09:59:29;;;;;;;5.60;1.98;;;;;;;6.50;42.45;93867.66;5002523;28;20022;-75
2023/02/02 10:02:02;;;;;;;8.60;2.25;;;;;;;6.47;42.56;93894.69;5003540;28;20044;-76
2023/02/02 10:04:35;;;;;;;3.28;1.55;;;;;;;6.47;42.40;93878.81;5003609;28;20060;-75
2023/02/02 10:07:16;;;;;;;3.03;1.70;;;;;;;6.34;42.39;93875.03;5003731;28;20022;-75
2023/02/02 10:09:57;;;;;;;6.75;2.20;;;;;;;6.45;42.33;93857.13;5003729;28;20045;-76
2023/02/02 10:12:40;;;;;;;3.22;1.67;;;;;;;6.55;41.46;93878.16;5003479;28;20102;-76
2023/02/02 10:15:17;;;;;;;6.10;1.90;;;;;;;6.39;42.04;93853.78;5003252;28;20093;-76
2023/02/02 10:17:52;;;;;;;3.75;1.88;;;;;;;6.49;41.73;93852.84;5003388;28;20026;-76
2023/02/02 10:20:21;;;;;;;4.32;1.88;;;;;;;6.48;41.42;93848.63;5003471;28;20038;-75
2023/02/02 10:22:48;;;;;;;6.10;2.13;;;;;;;6.49;42.02;93852.84;5003348;28;20201;-75
2023/02/02 10:25:15;;;;;;;3.60;1.75;;;;;;;6.55;41.40;93830.50;5003478;28;20264;-76
2023/02/02 10:27:54;;;;;;;4.25;2.00;;;;;;;6.65;41.69;93847.31;5003501;28;20022;-74
2023/02/02 10:30:33;;;;;;;5.90;1.98;;;;;;;6.73;41.73;93839.50;5003154;28;20220;-76
2023/02/02 10:33:04;;;;;;;4.30;1.70;;;;;;;6.85;41.83;93839.06;5003268;28;20061;-75
2023/02/02 10:35:51;;;;;;;3.55;1.48;;;;;;;6.88;41.00;93840.34;5003477;28;20046;-75
2023/02/02 10:38:32;;;;;;;3.78;1.98;;;;;;;6.80;41.71;93817.97;5006067;28;20269;-74
2023/02/02 10:41:16;;;;;;;6.75;2.35;;;;;;;6.75;41.57;93825.97;5007174;28;20277;-77
2023/02/02 10:44:09;;;;;;;3.72;1.30;;;;;;;6.78;42.49;93822.75;5007050;28;20325;-77
2023/02/02 10:46:39;;;;;;;6.00;2.50;;;;;;;6.55;42.36;93814.59;5007337;28;20018;-79
2023/02/02 10:49:11;;;;;;;6.97;1.83;;;;;;;6.45;42.10;93803.41;5007103;28;20021;-75
2023/02/02 10:51:37;;;;;;;3.63;1.52;;;;;;;6.43;41.66;93782.50;5007125;28;20237;-75
2023/02/02 10:54:37;;;;;;;5.00;1.63;;;;;;;6.34;41.85;93794.81;5007233;28;20080;-75
2023/02/02 10:57:05;;;;;;;5.88;1.60;;;;;;;6.26;42.60;93766.38;5007085;28;20054;-76
2023/02/02 10:59:35;;;;;;;3.92;1.75;;;;;;;6.27;42.19;93783.81;5007186;28;20024;-76
2023/02/02 11:02:00;;;;;;;2.40;1.50;;;;;;;6.40;42.24;93772.50;5007074;28;20342;-76
2023/02/02 11:07:19;;;;;;;5.05;1.95;;;;;;;6.52;42.44;93786.06;5006892;28;20026;-74
2023/02/02 11:09:45;;;;;;;5.28;2.00;;;;;;;6.61;41.73;93775.59;5006731;28;20228;-75
2023/02/02 11:12:27;;;;;;;3.25;1.60;;;;;;;6.68;41.92;93775.25;5006574;28;20086;-75
2023/02/02 11:15:00;;;;;;;4.55;1.63;;;;;;;6.72;41.32;93795.56;5005377;28;20023;-75
2023/02/02 11:17:27;;;;;;;4.88;2.10;;;;;;;6.77;40.39;93765.53;5005330;28;20026;-75
2023/02/02 11:19:55;;;;;;;6.07;1.70;;;;;;;6.74;40.54;93760.84;5006668;28;20042;-75
2023/02/02 11:22:38;;;;;;;3.42;1.60;;;;;;;6.80;40.69;93763.09;5005075;28;20085;-75
2023/02/02 11:25:07;;;;;;;4.03;1.48;;;;;;;6.93;41.19;93758.91;5004758;28;20224;-75
2023/02/02 11:27:39;;;;;;;3.88;1.75;;;;;;;6.95;39.58;93762.06;5005052;28;20256;-75
2023/02/02 11:30:26;;;;;;;5.32;1.67;;;;;;;6.92;40.05;93741.44;5004771;28;20324;-75
2023/02/02 11:32:52;;;;;;;10.40;1.88;;;;;;;7.02;40.24;93735.16;5003354;28;20030;-75
2023/02/02 11:35:30;;;;;;;7.60;1.85;;;;;;;7.03;39.65;93724.28;5004976;28;20072;-75
2023/02/02 11:38:09;;;;;;;4.05;1.30;;;;;;;7.10;40.06;93739.78;5006120;28;20026;-75
2023/02/02 11:40:51;;;;;;;4.70;2.00;;;;;;;7.10;39.28;93715.94;5006089;28;20106;-75
2023/02/02 11:43:22;;;;;;;7.00;1.63;;;;;;;7.08;40.05;93733.97;5006229;28;20022;-75
2023/02/02 11:45:56;;;;;;;7.60;1.70;;;;;;;7.18;39.72;93731.13;5006105;28;20216;-75
2023/02/02 11:48:27;;;;;;;2.88;1.25;;;;;;;7.23;38.61;93733.72;5005629;28;20026;-75
2023/02/02 11:50:55;;;;;;;6.80;1.47;;;;;;;7.38;39.09;93748.53;5005710;28;20155;-75
2023/02/02 11:53:23;;;;;;;2.90;1.48;;;;;;;7.43;39.22;93751.09;5005758;28;20186;-75
2023/02/02 11:55:48;;;;;;;5.70;1.73;;;;;;;7.40;39.44;93727.03;5005885;28;20041;-75
2023/02/02 11:58:19;;;;;;;3.80;1.50;;;;;;;7.50;37.33;93712.78;5005990;28;20173;-75
2023/02/02 12:00:57;;;;;;;4.55;1.77;;;;;;;7.38;37.28;93700.03;5005891;28;20038;-75